Terminal Aerodrome Forecast
Issued by NWS

Home | Current Version | Previous Version | Text Only | Print | Product List | Glossary On
Versions: 1 2 3 4 5 6 7 8 9 10 11 12 13
000
FTUS46 KLOX 182340
TAFSBP
TAF
KSBP 182340Z 1900/1924 31018KT P6SM SKC
     FM190200 31008KT P6SM SKC
     FM190600 31005KT 2SM BR OVC005
     FM190800 VRB03KT 1/2SM FG VV001
     FM191400 VRB03KT 3SM BR OVC003
     FM191700 31005KT P6SM SCT250
     FM192100 31015G20KT P6SM BKN250=

USA.gov is the U.S. government's official web portal to all federal, state and local government web resources and services.